TAF KPGD
KPGD 081734Z 0818/0918 24008KT P6SM SCT025 BKN250 FM090300 VRB05KT P6SM SCT250 FM090800 VRB03KT 3SM BR SCT010 SCT250 TEMPO 0909/0913 1SM BR OVC005 FM091400 15002KT P6SM SCT020 SCT250=
METAR KPGD
WC KPGD
WS KPGD
WV KPGD